WetterOnline ( https://www.wetteronline.de )

Wetter aktuell Freising

Aktuelles Wetter: München/Stadt (535m)

6-stündlich | Neueste Meldungen
Ortszeit Temperatur Wetter
Mo, 26.02. 7:00 1.5° C bedeckt
Mo, 26.02. 1:00 3.7° C wolkig
So, 25.02. 19:00 7.8° C wolkenlos
So, 25.02. 13:00 10.9° C wolkenlos
So, 25.02. 7:00 4.3° C bewölkt
So, 25.02. 1:00 6.0° C leicht bewölkt
Sa, 24.02. 19:00 5.8° C bedeckt
Sa, 24.02. 13:00 8.1° C wolkig
Ortszeit Temperatur Wetter
Mo, 26.02. 8:30 3.4° C bewölkt
Mo, 26.02. 8:20 3.4° C bewölkt
Mo, 26.02. 8:10 3.2° C bedeckt
Mo, 26.02. 8:00 2.6° C bedeckt
Mo, 26.02. 7:50 2.6° C bedeckt
Mo, 26.02. 7:40 2.4° C bedeckt
Mo, 26.02. 7:30 1.9° C bedeckt
Mo, 26.02. 7:00 1.5° C bedeckt
Mo, 26.02. 6:30 1.9° C bedeckt
Mo, 26.02. 6:00 2.3° C bedeckt
Mo, 26.02. 5:30 2.7° C bedeckt
Ortszeit Relative Feuchte Sichtweite
Mo, 26.02. 7:00 77% 55 km
Mo, 26.02. 1:00 76% 50 km
So, 25.02. 19:00 67% 65 km
So, 25.02. 13:00 44% 60 km
So, 25.02. 7:00 77% 60 km
So, 25.02. 1:00 71% >70 km
Sa, 24.02. 19:00 65% 60 km
Sa, 24.02. 13:00 51% 55 km
Ortszeit Relative Feuchte Sichtweite
Mo, 26.02. 8:30 71% 45 km
Mo, 26.02. 8:20 71% -
Mo, 26.02. 8:10 71% -
Mo, 26.02. 8:00 75% 50 km
Mo, 26.02. 7:50 75% -
Mo, 26.02. 7:40 75% -
Mo, 26.02. 7:30 77% 55 km
Mo, 26.02. 7:00 77% 55 km
Mo, 26.02. 6:30 75% 60 km
Mo, 26.02. 6:00 74% 60 km
Mo, 26.02. 5:30 72% 60 km
Ortszeit Niederschlagsmenge Niederschlagsart
Mo, 26.02. 7:00 0.0 l/m2 in 12 Std. -
Mo, 26.02. 1:00 0.0 l/m2 in 6 Std. -
So, 25.02. 19:00 0.0 l/m2 in 12 Std. -
So, 25.02. 13:00 0.0 l/m2 in 6 Std. -
So, 25.02. 7:00 0.1 l/m2 in 12 Std. Regen
So, 25.02. 1:00 0.1 l/m2 in 6 Std. Regen
Sa, 24.02. 19:00 0.0 l/m2 in 12 Std. -
Sa, 24.02. 13:00 0.0 l/m2 in 6 Std. -
Ortszeit Niederschlagsmenge Niederschlagsart
Mo, 26.02. 8:30 0.0 l/m2 in 30 Min -
Mo, 26.02. 8:20 keine Meldung -
Mo, 26.02. 8:10 keine Meldung -
Mo, 26.02. 8:00 0.0 l/m2 in 1 Std. -
Mo, 26.02. 7:50 keine Meldung -
Mo, 26.02. 7:40 keine Meldung -
Mo, 26.02. 7:30 0.0 l/m2 in 30 Min -
Mo, 26.02. 7:00 0.0 l/m2 in 1 Std. -
Mo, 26.02. 6:30 0.0 l/m2 in 30 Min -
Mo, 26.02. 6:00 0.0 l/m2 in 1 Std. -
Mo, 26.02. 5:30 0.0 l/m2 in 30 Min -
Ortszeit Stärke Spitze Richtung
km/h Bft. km/h Grad Sektor
Mo, 26.02. 7:00 6 1 15 110° O
Mo, 26.02. 1:00 7 2 25 120° SO
So, 25.02. 19:00 11 2 25 100° O
So, 25.02. 13:00 17 3 24 140° SO
So, 25.02. 7:00 6 1 19 160° S
So, 25.02. 1:00 6 1 15 160° S
Sa, 24.02. 19:00 4 1 18 60° NO
Sa, 24.02. 13:00 9 2 33 300° NW
Ortszeit Stärke Spitze Richtung
km/h Bft. km/h Grad Sektor
Mo, 26.02. 8:30 6 1 7 50° NO
Mo, 26.02. 8:20 6 1 - 50° NO
Mo, 26.02. 8:10 6 1 - 40° NO
Mo, 26.02. 8:00 4 1 7 70° O
Mo, 26.02. 7:50 4 1 - 70° O
Mo, 26.02. 7:40 4 1 - 70° O
Mo, 26.02. 7:30 4 1 7 80° O
Mo, 26.02. 7:00 6 1 11 110° O
Mo, 26.02. 6:30 4 1 11 110° O
Mo, 26.02. 6:00 7 2 11 110° O
Mo, 26.02. 5:30 6 1 11 110° O
Ortszeit Untergrenze Bedeckung Gattung
total tief tief mittel hoch
Mo, 26.02. 7:00 3000 m 8/8 8/8 - - -
Mo, 26.02. 1:00 4200 m 8/8 2/8 - - -
So, 25.02. 19:00 - 0/8 0/8 - - -
So, 25.02. 13:00 - 0/8 0/8 - - -
So, 25.02. 7:00 1500 m 8/8 4/8 - - -
So, 25.02. 1:00 1500 m 4/8 4/8 - - -
Sa, 24.02. 19:00 3300 m 8/8 8/8 - - -
Sa, 24.02. 13:00 4200 m 8/8 8/8 - - -
Ortszeit Bedeckungsgrad in Achtel und Wolkenuntergrenze
Mo, 26.02. 8:30 7(2700m)
Mo, 26.02. 8:20 7(2700m)
Mo, 26.02. 8:10 8
Mo, 26.02. 8:00 4(1800m) 5(2100m) 8(2700m)
Mo, 26.02. 7:50 4(1800m) 5(2100m) 8(2700m)
Mo, 26.02. 7:40 8
Mo, 26.02. 7:30 4(3000m) 8(3600m)
Mo, 26.02. 7:00 2(3000m) 8(3900m) 8(9000m)
Mo, 26.02. 6:30 1(3300m) 6(4200m) 8(4800m)
Mo, 26.02. 6:00 4(3000m) 8(5400m) 8(5700m)
Mo, 26.02. 5:30 8(3000m) 8(4800m) 8(5400m)
Ortszeit Luftdruck NN (hPa) Tendenz (hPa in 3 Std.)
Mo, 26.02. 7:00 1001 + 0,1
Mo, 26.02. 1:00 1001 - 1,4
So, 25.02. 19:00 1003 - 0,7
So, 25.02. 13:00 1005 - 1,8
So, 25.02. 7:00 1009 0,0
So, 25.02. 1:00 1009 0,0
Sa, 24.02. 19:00 1008 + 0,9
Sa, 24.02. 13:00 1006 + 1,1
Ortszeit Luftdruck NN (hPa) Tendenz (hPa in 3 Std.)
Mo, 26.02. 8:30 1001 + 1,3
Mo, 26.02. 8:20 1001 keine Meldung
Mo, 26.02. 8:10 1002 keine Meldung
Mo, 26.02. 8:00 1001 + 0,9
Mo, 26.02. 7:50 1001 keine Meldung
Mo, 26.02. 7:40 1001 keine Meldung
Mo, 26.02. 7:30 1001 + 0,5
Mo, 26.02. 7:00 1001 + 0,1
Mo, 26.02. 6:30 1001 - 0,2
Mo, 26.02. 6:00 1001 - 0,3
Mo, 26.02. 5:30 1000 - 0,6
Ortszeit Schneehöhe (cm)
Mo, 26.02. 7:00 0
Mo, 26.02. 1:00 0
So, 25.02. 19:00 0
So, 25.02. 13:00 0
So, 25.02. 7:00 0
So, 25.02. 1:00 0
Sa, 24.02. 19:00 0
Sa, 24.02. 13:00 0
Ortszeit Schneehöhe (cm)
Mo, 26.02. 8:30 0
Mo, 26.02. 8:20 0
Mo, 26.02. 8:10 -
Mo, 26.02. 8:00 0
Mo, 26.02. 7:50 0
Mo, 26.02. 7:40 -
Mo, 26.02. 7:30 0
Mo, 26.02. 7:00 0
Mo, 26.02. 6:30 0
Mo, 26.02. 6:00 0
Mo, 26.02. 5:30 0
Link zu dieser Seite / Seite empfehlen

Das Wetter in ...